sensor_id;sensor_type;location;lat;lon;timestamp;P1;durP1;ratioP1;P2;durP2;ratioP2
82871;SDS011;72646;43.596;1.428;2023-11-21T00:01:06;10.30;;;2.85;;
82871;SDS011;72646;43.596;1.428;2023-11-21T00:03:33;10.77;;;2.40;;
82871;SDS011;72646;43.596;1.428;2023-11-21T00:05:59;9.77;;;2.80;;
82871;SDS011;72646;43.596;1.428;2023-11-21T00:08:25;8.45;;;2.30;;
82871;SDS011;72646;43.596;1.428;2023-11-21T00:10:51;9.60;;;3.63;;
82871;SDS011;72646;43.596;1.428;2023-11-21T00:13:16;8.65;;;2.80;;
82871;SDS011;72646;43.596;1.428;2023-11-21T00:18:08;7.73;;;2.43;;
82871;SDS011;72646;43.596;1.428;2023-11-21T00:20:33;7.85;;;2.25;;
82871;SDS011;72646;43.596;1.428;2023-11-21T00:22:59;8.25;;;2.28;;
82871;SDS011;72646;43.596;1.428;2023-11-21T00:25:27;8.45;;;2.28;;
82871;SDS011;72646;43.596;1.428;2023-11-21T00:27:53;8.60;;;2.13;;
82871;SDS011;72646;43.596;1.428;2023-11-21T00:30:19;8.68;;;2.40;;
82871;SDS011;72646;43.596;1.428;2023-11-21T00:32:46;7.72;;;2.00;;
82871;SDS011;72646;43.596;1.428;2023-11-21T00:35:11;7.97;;;2.20;;
82871;SDS011;72646;43.596;1.428;2023-11-21T00:37:36;6.75;;;1.73;;
82871;SDS011;72646;43.596;1.428;2023-11-21T00:40:04;7.50;;;1.90;;
82871;SDS011;72646;43.596;1.428;2023-11-21T00:42:30;8.07;;;2.00;;
82871;SDS011;72646;43.596;1.428;2023-11-21T00:44:58;8.10;;;2.20;;
82871;SDS011;72646;43.596;1.428;2023-11-21T00:47:24;8.43;;;2.05;;
82871;SDS011;72646;43.596;1.428;2023-11-21T00:49:49;9.10;;;2.00;;
82871;SDS011;72646;43.596;1.428;2023-11-21T00:52:15;7.80;;;1.85;;
82871;SDS011;72646;43.596;1.428;2023-11-21T00:54:41;9.88;;;2.20;;
82871;SDS011;72646;43.596;1.428;2023-11-21T00:57:07;8.20;;;2.10;;
82871;SDS011;72646;43.596;1.428;2023-11-21T00:59:33;6.90;;;1.70;;
82871;SDS011;72646;43.596;1.428;2023-11-21T01:01:59;9.27;;;1.70;;
82871;SDS011;72646;43.596;1.428;2023-11-21T01:04:26;8.95;;;1.80;;
82871;SDS011;72646;43.596;1.428;2023-11-21T01:06:52;7.53;;;2.15;;
82871;SDS011;72646;43.596;1.428;2023-11-21T01:09:17;7.75;;;1.77;;
82871;SDS011;72646;43.596;1.428;2023-11-21T01:11:43;7.60;;;1.90;;
82871;SDS011;72646;43.596;1.428;2023-11-21T01:14:09;6.57;;;1.90;;
82871;SDS011;72646;43.596;1.428;2023-11-21T01:16:35;10.10;;;2.20;;
82871;SDS011;72646;43.596;1.428;2023-11-21T01:19:00;7.53;;;1.70;;
82871;SDS011;72646;43.596;1.428;2023-11-21T01:21:26;8.23;;;1.80;;
82871;SDS011;72646;43.596;1.428;2023-11-21T01:26:18;7.53;;;1.63;;
82871;SDS011;72646;43.596;1.428;2023-11-21T01:28:43;6.97;;;1.52;;
82871;SDS011;72646;43.596;1.428;2023-11-21T01:31:09;6.75;;;1.55;;
82871;SDS011;72646;43.596;1.428;2023-11-21T01:33:34;6.28;;;1.60;;
82871;SDS011;72646;43.596;1.428;2023-11-21T01:35:59;7.15;;;1.60;;
82871;SDS011;72646;43.596;1.428;2023-11-21T01:38:25;7.35;;;1.55;;
82871;SDS011;72646;43.596;1.428;2023-11-21T01:40:50;8.45;;;2.15;;
82871;SDS011;72646;43.596;1.428;2023-11-21T01:43:16;8.02;;;1.70;;
82871;SDS011;72646;43.596;1.428;2023-11-21T01:45:42;7.40;;;1.60;;
82871;SDS011;72646;43.596;1.428;2023-11-21T01:48:07;7.38;;;1.73;;
82871;SDS011;72646;43.596;1.428;2023-11-21T01:50:33;6.13;;;1.67;;
82871;SDS011;72646;43.596;1.428;2023-11-21T01:52:59;6.32;;;1.65;;
82871;SDS011;72646;43.596;1.428;2023-11-21T01:55:26;6.80;;;1.50;;
82871;SDS011;72646;43.596;1.428;2023-11-21T01:57:52;7.32;;;1.60;;
82871;SDS011;72646;43.596;1.428;2023-11-21T02:00:19;6.15;;;1.38;;
82871;SDS011;72646;43.596;1.428;2023-11-21T02:02:45;6.32;;;1.70;;
82871;SDS011;72646;43.596;1.428;2023-11-21T02:05:11;5.35;;;1.33;;
82871;SDS011;72646;43.596;1.428;2023-11-21T02:07:41;7.25;;;1.52;;
82871;SDS011;72646;43.596;1.428;2023-11-21T02:10:10;6.60;;;1.23;;
82871;SDS011;72646;43.596;1.428;2023-11-21T02:22:05;7.47;;;1.48;;
82871;SDS011;72646;43.596;1.428;2023-11-21T02:24:32;6.32;;;1.10;;
82871;SDS011;72646;43.596;1.428;2023-11-21T02:26:58;5.63;;;1.20;;
82871;SDS011;72646;43.596;1.428;2023-11-21T02:29:23;5.15;;;1.20;;
82871;SDS011;72646;43.596;1.428;2023-11-21T02:31:53;6.35;;;1.20;;
82871;SDS011;72646;43.596;1.428;2023-11-21T02:34:19;5.65;;;1.30;;
82871;SDS011;72646;43.596;1.428;2023-11-21T02:36:46;7.63;;;1.40;;
82871;SDS011;72646;43.596;1.428;2023-11-21T02:39:14;6.28;;;1.20;;
82871;SDS011;72646;43.596;1.428;2023-11-21T02:41:43;4.47;;;1.10;;
82871;SDS011;72646;43.596;1.428;2023-11-21T02:44:09;6.03;;;1.30;;
82871;SDS011;72646;43.596;1.428;2023-11-21T02:46:35;5.43;;;1.20;;
82871;SDS011;72646;43.596;1.428;2023-11-21T02:51:35;7.25;;;1.20;;
82871;SDS011;72646;43.596;1.428;2023-11-21T02:54:01;5.30;;;0.98;;
82871;SDS011;72646;43.596;1.428;2023-11-21T02:56:28;6.97;;;1.30;;
82871;SDS011;72646;43.596;1.428;2023-11-21T02:58:57;5.65;;;1.15;;
82871;SDS011;72646;43.596;1.428;2023-11-21T03:01:24;4.60;;;1.00;;
82871;SDS011;72646;43.596;1.428;2023-11-21T03:03:50;5.72;;;1.00;;
82871;SDS011;72646;43.596;1.428;2023-11-21T03:06:19;5.55;;;1.35;;
82871;SDS011;72646;43.596;1.428;2023-11-21T03:08:45;5.97;;;1.20;;
82871;SDS011;72646;43.596;1.428;2023-11-21T03:11:11;6.45;;;1.20;;
82871;SDS011;72646;43.596;1.428;2023-11-21T03:13:38;5.50;;;1.10;;
82871;SDS011;72646;43.596;1.428;2023-11-21T03:16:09;5.65;;;1.20;;
82871;SDS011;72646;43.596;1.428;2023-11-21T03:18:36;5.53;;;1.15;;
82871;SDS011;72646;43.596;1.428;2023-11-21T03:21:02;5.50;;;1.08;;
82871;SDS011;72646;43.596;1.428;2023-11-21T03:23:27;6.45;;;1.20;;
82871;SDS011;72646;43.596;1.428;2023-11-21T03:25:53;5.20;;;1.00;;
82871;SDS011;72646;43.596;1.428;2023-11-21T03:28:18;8.68;;;1.30;;
82871;SDS011;72646;43.596;1.428;2023-11-21T03:30:45;4.65;;;0.90;;
82871;SDS011;72646;43.596;1.428;2023-11-21T03:33:10;4.28;;;1.00;;
82871;SDS011;72646;43.596;1.428;2023-11-21T03:35:35;5.82;;;1.00;;
82871;SDS011;72646;43.596;1.428;2023-11-21T03:38:01;4.13;;;0.90;;
82871;SDS011;72646;43.596;1.428;2023-11-21T03:40:27;4.70;;;1.10;;
82871;SDS011;72646;43.596;1.428;2023-11-21T03:42:52;5.22;;;1.00;;
82871;SDS011;72646;43.596;1.428;2023-11-21T03:45:17;6.05;;;1.40;;
82871;SDS011;72646;43.596;1.428;2023-11-21T03:47:43;5.53;;;1.13;;
82871;SDS011;72646;43.596;1.428;2023-11-21T03:52:35;4.63;;;0.98;;
82871;SDS011;72646;43.596;1.428;2023-11-21T03:55:03;3.42;;;0.80;;
82871;SDS011;72646;43.596;1.428;2023-11-21T03:57:29;3.90;;;1.00;;
82871;SDS011;72646;43.596;1.428;2023-11-21T03:59:54;5.35;;;0.93;;
82871;SDS011;72646;43.596;1.428;2023-11-21T04:02:19;5.00;;;0.95;;
82871;SDS011;72646;43.596;1.428;2023-11-21T04:04:45;4.82;;;0.88;;
82871;SDS011;72646;43.596;1.428;2023-11-21T04:07:11;6.25;;;1.17;;
82871;SDS011;72646;43.596;1.428;2023-11-21T04:09:38;5.07;;;1.17;;
82871;SDS011;72646;43.596;1.428;2023-11-21T04:12:04;3.70;;;0.88;;
82871;SDS011;72646;43.596;1.428;2023-11-21T04:14:29;4.95;;;1.00;;
82871;SDS011;72646;43.596;1.428;2023-11-21T04:16:55;4.63;;;1.05;;
82871;SDS011;72646;43.596;1.428;2023-11-21T04:19:20;4.88;;;0.95;;
82871;SDS011;72646;43.596;1.428;2023-11-21T04:21:45;5.00;;;0.93;;
82871;SDS011;72646;43.596;1.428;2023-11-21T04:24:11;4.60;;;0.80;;
82871;SDS011;72646;43.596;1.428;2023-11-21T04:26:36;4.90;;;0.90;;
82871;SDS011;72646;43.596;1.428;2023-11-21T04:29:02;3.88;;;0.90;;
82871;SDS011;72646;43.596;1.428;2023-11-21T04:31:28;4.50;;;0.90;;
82871;SDS011;72646;43.596;1.428;2023-11-21T04:33:53;7.32;;;1.00;;
82871;SDS011;72646;43.596;1.428;2023-11-21T04:36:18;4.18;;;0.90;;
82871;SDS011;72646;43.596;1.428;2023-11-21T04:38:44;5.63;;;1.00;;
82871;SDS011;72646;43.596;1.428;2023-11-21T04:41:10;3.83;;;0.80;;
82871;SDS011;72646;43.596;1.428;2023-11-21T04:43:37;2.13;;;0.68;;
82871;SDS011;72646;43.596;1.428;2023-11-21T04:46:02;5.75;;;1.23;;
82871;SDS011;72646;43.596;1.428;2023-11-21T04:48:28;6.22;;;1.10;;
82871;SDS011;72646;43.596;1.428;2023-11-21T04:50:53;4.35;;;0.82;;
82871;SDS011;72646;43.596;1.428;2023-11-21T04:53:18;4.10;;;0.80;;
82871;SDS011;72646;43.596;1.428;2023-11-21T04:55:45;5.07;;;0.85;;
82871;SDS011;72646;43.596;1.428;2023-11-21T04:58:11;4.80;;;0.82;;
82871;SDS011;72646;43.596;1.428;2023-11-21T05:00:37;5.47;;;0.98;;
82871;SDS011;72646;43.596;1.428;2023-11-21T05:03:02;5.40;;;1.10;;
82871;SDS011;72646;43.596;1.428;2023-11-21T05:07:54;4.88;;;0.80;;
82871;SDS011;72646;43.596;1.428;2023-11-21T05:10:20;4.90;;;0.93;;
82871;SDS011;72646;43.596;1.428;2023-11-21T05:12:47;4.45;;;0.77;;
82871;SDS011;72646;43.596;1.428;2023-11-21T05:15:15;5.38;;;0.90;;
82871;SDS011;72646;43.596;1.428;2023-11-21T05:17:41;5.10;;;0.85;;
82871;SDS011;72646;43.596;1.428;2023-11-21T05:20:07;4.65;;;0.95;;
82871;SDS011;72646;43.596;1.428;2023-11-21T05:22:34;6.40;;;0.90;;
82871;SDS011;72646;43.596;1.428;2023-11-21T05:25:01;5.15;;;0.90;;
82871;SDS011;72646;43.596;1.428;2023-11-21T05:27:28;4.57;;;0.77;;
82871;SDS011;72646;43.596;1.428;2023-11-21T05:29:53;7.03;;;1.10;;
82871;SDS011;72646;43.596;1.428;2023-11-21T05:32:18;6.47;;;1.05;;
82871;SDS011;72646;43.596;1.428;2023-11-21T05:34:44;4.28;;;0.77;;
82871;SDS011;72646;43.596;1.428;2023-11-21T05:37:09;4.65;;;1.08;;
82871;SDS011;72646;43.596;1.428;2023-11-21T05:39:35;4.95;;;1.20;;
82871;SDS011;72646;43.596;1.428;2023-11-21T05:42:01;6.55;;;0.90;;
82871;SDS011;72646;43.596;1.428;2023-11-21T05:44:26;5.53;;;0.90;;
82871;SDS011;72646;43.596;1.428;2023-11-21T05:46:51;4.35;;;1.00;;
82871;SDS011;72646;43.596;1.428;2023-11-21T05:49:17;4.78;;;1.02;;
82871;SDS011;72646;43.596;1.428;2023-11-21T05:51:42;6.72;;;0.90;;
82871;SDS011;72646;43.596;1.428;2023-11-21T05:54:08;4.90;;;0.90;;
82871;SDS011;72646;43.596;1.428;2023-11-21T05:56:34;6.00;;;1.17;;
82871;SDS011;72646;43.596;1.428;2023-11-21T05:58:59;4.68;;;0.82;;
82871;SDS011;72646;43.596;1.428;2023-11-21T06:01:25;4.53;;;0.98;;
82871;SDS011;72646;43.596;1.428;2023-11-21T06:03:53;4.95;;;0.90;;
82871;SDS011;72646;43.596;1.428;2023-11-21T06:06:20;5.22;;;0.98;;
82871;SDS011;72646;43.596;1.428;2023-11-21T06:08:47;4.57;;;0.90;;
82871;SDS011;72646;43.596;1.428;2023-11-21T06:11:13;4.38;;;0.80;;
82871;SDS011;72646;43.596;1.428;2023-11-21T06:13:39;5.75;;;1.00;;
82871;SDS011;72646;43.596;1.428;2023-11-21T06:16:04;19.25;;;1.45;;
82871;SDS011;72646;43.596;1.428;2023-11-21T06:18:30;4.25;;;0.80;;
82871;SDS011;72646;43.596;1.428;2023-11-21T06:20:56;5.78;;;1.00;;
82871;SDS011;72646;43.596;1.428;2023-11-21T06:23:21;5.10;;;1.05;;
82871;SDS011;72646;43.596;1.428;2023-11-21T06:25:46;4.50;;;0.88;;
82871;SDS011;72646;43.596;1.428;2023-11-21T06:28:12;4.90;;;0.98;;
82871;SDS011;72646;43.596;1.428;2023-11-21T06:30:37;5.40;;;0.90;;
82871;SDS011;72646;43.596;1.428;2023-11-21T06:33:03;5.72;;;1.15;;
82871;SDS011;72646;43.596;1.428;2023-11-21T06:35:28;5.30;;;0.95;;
82871;SDS011;72646;43.596;1.428;2023-11-21T06:37:55;3.78;;;0.80;;
82871;SDS011;72646;43.596;1.428;2023-11-21T06:40:20;4.40;;;0.85;;
82871;SDS011;72646;43.596;1.428;2023-11-21T06:42:46;6.18;;;1.23;;
82871;SDS011;72646;43.596;1.428;2023-11-21T06:45:12;8.07;;;2.10;;
82871;SDS011;72646;43.596;1.428;2023-11-21T06:47:38;4.65;;;1.08;;
82871;SDS011;72646;43.596;1.428;2023-11-21T06:50:04;5.07;;;0.90;;
82871;SDS011;72646;43.596;1.428;2023-11-21T06:52:31;5.80;;;0.90;;
82871;SDS011;72646;43.596;1.428;2023-11-21T06:54:57;6.35;;;1.25;;
82871;SDS011;72646;43.596;1.428;2023-11-21T06:57:22;4.18;;;1.00;;
82871;SDS011;72646;43.596;1.428;2023-11-21T06:59:48;4.40;;;0.88;;
82871;SDS011;72646;43.596;1.428;2023-11-21T07:02:15;5.90;;;1.27;;
82871;SDS011;72646;43.596;1.428;2023-11-21T07:04:43;6.07;;;1.08;;
82871;SDS011;72646;43.596;1.428;2023-11-21T07:07:10;3.97;;;0.93;;
82871;SDS011;72646;43.596;1.428;2023-11-21T07:09:35;4.22;;;0.80;;
82871;SDS011;72646;43.596;1.428;2023-11-21T07:12:00;5.55;;;1.17;;
82871;SDS011;72646;43.596;1.428;2023-11-21T07:14:28;4.25;;;0.95;;
82871;SDS011;72646;43.596;1.428;2023-11-21T07:16:54;6.13;;;1.02;;
82871;SDS011;72646;43.596;1.428;2023-11-21T07:19:20;5.35;;;0.85;;
82871;SDS011;72646;43.596;1.428;2023-11-21T07:24:12;5.20;;;1.08;;
82871;SDS011;72646;43.596;1.428;2023-11-21T07:26:37;3.92;;;0.80;;
82871;SDS011;72646;43.596;1.428;2023-11-21T07:29:03;5.72;;;0.98;;
82871;SDS011;72646;43.596;1.428;2023-11-21T07:31:29;5.22;;;0.90;;
82871;SDS011;72646;43.596;1.428;2023-11-21T07:33:58;4.32;;;1.00;;
82871;SDS011;72646;43.596;1.428;2023-11-21T07:36:27;4.78;;;1.00;;
82871;SDS011;72646;43.596;1.428;2023-11-21T07:38:52;4.20;;;0.85;;
82871;SDS011;72646;43.596;1.428;2023-11-21T07:41:18;4.60;;;0.93;;
82871;SDS011;72646;43.596;1.428;2023-11-21T07:43:46;4.80;;;1.00;;
82871;SDS011;72646;43.596;1.428;2023-11-21T07:46:12;3.88;;;0.90;;
82871;SDS011;72646;43.596;1.428;2023-11-21T07:51:04;5.47;;;0.95;;
82871;SDS011;72646;43.596;1.428;2023-11-21T07:53:30;3.65;;;0.70;;
82871;SDS011;72646;43.596;1.428;2023-11-21T07:55:58;3.75;;;0.90;;
82871;SDS011;72646;43.596;1.428;2023-11-21T07:58:28;4.63;;;0.98;;
82871;SDS011;72646;43.596;1.428;2023-11-21T08:00:54;5.50;;;1.10;;
82871;SDS011;72646;43.596;1.428;2023-11-21T08:03:19;5.65;;;1.20;;
82871;SDS011;72646;43.596;1.428;2023-11-21T08:05:46;3.83;;;0.80;;
82871;SDS011;72646;43.596;1.428;2023-11-21T08:08:11;4.18;;;0.93;;
82871;SDS011;72646;43.596;1.428;2023-11-21T08:10:37;3.70;;;0.80;;
82871;SDS011;72646;43.596;1.428;2023-11-21T08:13:02;3.65;;;0.80;;
82871;SDS011;72646;43.596;1.428;2023-11-21T08:15:28;2.78;;;0.70;;
82871;SDS011;72646;43.596;1.428;2023-11-21T08:17:54;5.65;;;1.05;;
82871;SDS011;72646;43.596;1.428;2023-11-21T08:20:19;6.15;;;0.82;;
82871;SDS011;72646;43.596;1.428;2023-11-21T08:22:45;10.23;;;1.00;;
82871;SDS011;72646;43.596;1.428;2023-11-21T08:25:12;12.82;;;1.10;;
82871;SDS011;72646;43.596;1.428;2023-11-21T08:27:38;4.00;;;1.00;;
82871;SDS011;72646;43.596;1.428;2023-11-21T08:30:04;4.40;;;0.80;;
82871;SDS011;72646;43.596;1.428;2023-11-21T08:32:29;9.50;;;1.10;;
82871;SDS011;72646;43.596;1.428;2023-11-21T08:34:57;5.82;;;1.50;;
82871;SDS011;72646;43.596;1.428;2023-11-21T08:37:23;6.15;;;1.45;;
82871;SDS011;72646;43.596;1.428;2023-11-21T08:39:49;6.45;;;1.45;;
82871;SDS011;72646;43.596;1.428;2023-11-21T08:42:15;4.88;;;1.20;;
82871;SDS011;72646;43.596;1.428;2023-11-21T08:44:40;5.82;;;1.40;;
82871;SDS011;72646;43.596;1.428;2023-11-21T08:47:06;7.03;;;1.20;;
82871;SDS011;72646;43.596;1.428;2023-11-21T08:49:32;5.15;;;1.27;;
82871;SDS011;72646;43.596;1.428;2023-11-21T08:51:58;4.85;;;1.00;;
82871;SDS011;72646;43.596;1.428;2023-11-21T08:54:26;5.28;;;1.00;;
82871;SDS011;72646;43.596;1.428;2023-11-21T08:56:52;3.85;;;1.00;;
82871;SDS011;72646;43.596;1.428;2023-11-21T08:59:19;4.60;;;1.10;;
82871;SDS011;72646;43.596;1.428;2023-11-21T09:01:45;4.65;;;1.00;;
82871;SDS011;72646;43.596;1.428;2023-11-21T09:04:11;5.15;;;1.05;;
82871;SDS011;72646;43.596;1.428;2023-11-21T09:06:39;5.78;;;1.20;;
82871;SDS011;72646;43.596;1.428;2023-11-21T09:09:05;4.78;;;1.00;;
82871;SDS011;72646;43.596;1.428;2023-11-21T09:11:33;5.43;;;1.23;;
82871;SDS011;72646;43.596;1.428;2023-11-21T09:14:00;6.70;;;1.40;;
82871;SDS011;72646;43.596;1.428;2023-11-21T09:16:25;4.60;;;1.20;;
82871;SDS011;72646;43.596;1.428;2023-11-21T09:18:51;7.13;;;1.25;;
82871;SDS011;72646;43.596;1.428;2023-11-21T09:21:17;4.95;;;1.08;;
82871;SDS011;72646;43.596;1.428;2023-11-21T09:23:44;4.97;;;1.20;;
82871;SDS011;72646;43.596;1.428;2023-11-21T09:26:09;4.90;;;1.27;;
82871;SDS011;72646;43.596;1.428;2023-11-21T09:28:35;5.63;;;1.50;;
82871;SDS011;72646;43.596;1.428;2023-11-21T09:31:04;5.07;;;1.20;;
82871;SDS011;72646;43.596;1.428;2023-11-21T09:33:30;6.40;;;1.30;;
82871;SDS011;72646;43.596;1.428;2023-11-21T09:35:56;5.50;;;1.40;;
82871;SDS011;72646;43.596;1.428;2023-11-21T09:38:22;5.90;;;1.23;;
82871;SDS011;72646;43.596;1.428;2023-11-21T09:40:48;6.28;;;1.40;;
82871;SDS011;72646;43.596;1.428;2023-11-21T09:43:15;5.18;;;1.40;;
82871;SDS011;72646;43.596;1.428;2023-11-21T09:45:44;6.70;;;1.27;;
82871;SDS011;72646;43.596;1.428;2023-11-21T09:48:16;5.88;;;1.38;;
82871;SDS011;72646;43.596;1.428;2023-11-21T09:50:42;6.68;;;1.55;;
82871;SDS011;72646;43.596;1.428;2023-11-21T09:53:18;6.05;;;1.45;;
82871;SDS011;72646;43.596;1.428;2023-11-21T09:55:50;5.95;;;1.33;;
82871;SDS011;72646;43.596;1.428;2023-11-21T09:58:17;4.95;;;1.23;;
82871;SDS011;72646;43.596;1.428;2023-11-21T10:00:48;7.30;;;1.63;;
82871;SDS011;72646;43.596;1.428;2023-11-21T10:03:15;6.47;;;1.45;;
82871;SDS011;72646;43.596;1.428;2023-11-21T10:05:42;5.90;;;1.30;;
82871;SDS011;72646;43.596;1.428;2023-11-21T10:08:09;6.15;;;1.60;;
82871;SDS011;72646;43.596;1.428;2023-11-21T10:10:38;11.00;;;2.00;;
82871;SDS011;72646;43.596;1.428;2023-11-21T10:13:11;7.05;;;1.35;;
82871;SDS011;72646;43.596;1.428;2023-11-21T10:15:43;6.90;;;1.25;;
82871;SDS011;72646;43.596;1.428;2023-11-21T10:18:13;9.63;;;1.35;;
82871;SDS011;72646;43.596;1.428;2023-11-21T10:20:42;6.45;;;1.50;;
82871;SDS011;72646;43.596;1.428;2023-11-21T10:23:09;7.03;;;1.70;;
82871;SDS011;72646;43.596;1.428;2023-11-21T10:25:36;6.18;;;1.50;;
82871;SDS011;72646;43.596;1.428;2023-11-21T10:28:03;5.88;;;1.17;;
82871;SDS011;72646;43.596;1.428;2023-11-21T10:30:32;7.82;;;1.52;;
82871;SDS011;72646;43.596;1.428;2023-11-21T10:32:59;5.45;;;1.35;;
82871;SDS011;72646;43.596;1.428;2023-11-21T10:35:42;5.45;;;1.35;;
82871;SDS011;72646;43.596;1.428;2023-11-21T10:38:12;4.57;;;1.33;;
82871;SDS011;72646;43.596;1.428;2023-11-21T10:40:39;5.13;;;1.27;;
82871;SDS011;72646;43.596;1.428;2023-11-21T10:43:06;4.88;;;1.30;;
82871;SDS011;72646;43.596;1.428;2023-11-21T10:45:38;5.00;;;1.27;;
82871;SDS011;72646;43.596;1.428;2023-11-21T10:48:05;6.38;;;1.27;;
82871;SDS011;72646;43.596;1.428;2023-11-21T10:50:38;6.15;;;1.33;;
82871;SDS011;72646;43.596;1.428;2023-11-21T10:53:04;4.57;;;1.10;;
82871;SDS011;72646;43.596;1.428;2023-11-21T10:55:31;6.22;;;1.35;;
82871;SDS011;72646;43.596;1.428;2023-11-21T10:58:01;5.00;;;1.35;;
82871;SDS011;72646;43.596;1.428;2023-11-21T11:00:30;5.43;;;1.30;;
82871;SDS011;72646;43.596;1.428;2023-11-21T11:02:57;5.10;;;1.27;;
82871;SDS011;72646;43.596;1.428;2023-11-21T11:05:27;5.53;;;1.10;;
82871;SDS011;72646;43.596;1.428;2023-11-21T11:07:58;5.32;;;1.00;;
82871;SDS011;72646;43.596;1.428;2023-11-21T11:10:28;4.65;;;1.35;;
82871;SDS011;72646;43.596;1.428;2023-11-21T11:12:55;4.75;;;1.15;;
82871;SDS011;72646;43.596;1.428;2023-11-21T11:15:22;4.45;;;1.00;;
82871;SDS011;72646;43.596;1.428;2023-11-21T11:17:48;4.10;;;1.20;;
82871;SDS011;72646;43.596;1.428;2023-11-21T11:20:14;6.10;;;1.30;;
82871;SDS011;72646;43.596;1.428;2023-11-21T11:28:38;5.82;;;1.10;;
82871;SDS011;72646;43.596;1.428;2023-11-21T11:37:32;4.60;;;1.20;;
82871;SDS011;72646;43.596;1.428;2023-11-21T11:39:57;4.45;;;1.20;;
82871;SDS011;72646;43.596;1.428;2023-11-21T11:42:24;4.82;;;1.33;;
82871;SDS011;72646;43.596;1.428;2023-11-21T11:44:51;3.63;;;0.90;;
82871;SDS011;72646;43.596;1.428;2023-11-21T11:47:23;4.85;;;1.10;;
82871;SDS011;72646;43.596;1.428;2023-11-21T11:55:02;5.50;;;1.20;;
82871;SDS011;72646;43.596;1.428;2023-11-21T11:57:32;3.72;;;0.95;;
82871;SDS011;72646;43.596;1.428;2023-11-21T12:00:09;4.40;;;1.15;;
82871;SDS011;72646;43.596;1.428;2023-11-21T12:02:41;4.03;;;1.10;;
82871;SDS011;72646;43.596;1.428;2023-11-21T12:05:09;5.13;;;1.15;;
82871;SDS011;72646;43.596;1.428;2023-11-21T12:07:52;5.57;;;1.38;;
82871;SDS011;72646;43.596;1.428;2023-11-21T12:10:28;3.70;;;0.90;;
82871;SDS011;72646;43.596;1.428;2023-11-21T12:15:24;4.10;;;1.00;;
82871;SDS011;72646;43.596;1.428;2023-11-21T12:20:19;4.57;;;1.05;;
82871;SDS011;72646;43.596;1.428;2023-11-21T12:22:46;4.65;;;1.08;;
82871;SDS011;72646;43.596;1.428;2023-11-21T12:25:17;6.25;;;1.10;;
82871;SDS011;72646;43.596;1.428;2023-11-21T12:27:48;4.55;;;1.02;;
82871;SDS011;72646;43.596;1.428;2023-11-21T12:30:16;4.88;;;1.23;;
82871;SDS011;72646;43.596;1.428;2023-11-21T12:32:53;4.43;;;1.10;;
82871;SDS011;72646;43.596;1.428;2023-11-21T12:35:21;4.65;;;1.17;;
82871;SDS011;72646;43.596;1.428;2023-11-21T12:37:49;4.30;;;1.00;;
82871;SDS011;72646;43.596;1.428;2023-11-21T12:40:17;3.42;;;0.98;;
82871;SDS011;72646;43.596;1.428;2023-11-21T12:42:44;3.83;;;1.00;;
82871;SDS011;72646;43.596;1.428;2023-11-21T12:45:20;4.68;;;1.08;;
82871;SDS011;72646;43.596;1.428;2023-11-21T12:47:47;4.15;;;1.10;;
82871;SDS011;72646;43.596;1.428;2023-11-21T12:50:15;4.40;;;1.20;;
82871;SDS011;72646;43.596;1.428;2023-11-21T12:52:44;4.10;;;1.10;;
82871;SDS011;72646;43.596;1.428;2023-11-21T12:55:16;4.65;;;1.10;;
82871;SDS011;72646;43.596;1.428;2023-11-21T12:57:44;4.10;;;1.00;;
82871;SDS011;72646;43.596;1.428;2023-11-21T13:00:11;3.97;;;0.98;;
82871;SDS011;72646;43.596;1.428;2023-11-21T13:02:49;4.47;;;1.10;;
82871;SDS011;72646;43.596;1.428;2023-11-21T13:05:23;3.58;;;0.90;;
82871;SDS011;72646;43.596;1.428;2023-11-21T13:07:59;4.30;;;1.10;;
82871;SDS011;72646;43.596;1.428;2023-11-21T13:10:29;3.95;;;1.00;;
82871;SDS011;72646;43.596;1.428;2023-11-21T13:13:02;4.53;;;1.00;;
82871;SDS011;72646;43.596;1.428;2023-11-21T13:15:30;4.50;;;1.02;;
82871;SDS011;72646;43.596;1.428;2023-11-21T13:17:58;4.43;;;1.00;;
82871;SDS011;72646;43.596;1.428;2023-11-21T13:20:24;3.83;;;1.13;;
82871;SDS011;72646;43.596;1.428;2023-11-21T13:22:54;3.70;;;0.80;;
82871;SDS011;72646;43.596;1.428;2023-11-21T13:25:30;4.03;;;0.90;;
82871;SDS011;72646;43.596;1.428;2023-11-21T13:27:59;3.97;;;1.00;;
82871;SDS011;72646;43.596;1.428;2023-11-21T13:30:25;3.60;;;1.00;;
82871;SDS011;72646;43.596;1.428;2023-11-21T13:32:55;4.25;;;0.90;;
82871;SDS011;72646;43.596;1.428;2023-11-21T13:35:27;3.70;;;0.90;;
82871;SDS011;72646;43.596;1.428;2023-11-21T13:37:57;3.80;;;0.95;;
82871;SDS011;72646;43.596;1.428;2023-11-21T13:40:32;4.30;;;1.10;;
82871;SDS011;72646;43.596;1.428;2023-11-21T13:42:59;3.47;;;0.90;;
82871;SDS011;72646;43.596;1.428;2023-11-21T13:45:25;3.05;;;0.80;;
82871;SDS011;72646;43.596;1.428;2023-11-21T13:47:52;3.90;;;1.02;;
82871;SDS011;72646;43.596;1.428;2023-11-21T13:50:30;4.75;;;0.93;;
82871;SDS011;72646;43.596;1.428;2023-11-21T13:53:02;3.95;;;1.05;;
82871;SDS011;72646;43.596;1.428;2023-11-21T13:55:30;3.88;;;0.90;;
82871;SDS011;72646;43.596;1.428;2023-11-21T13:57:56;3.95;;;1.00;;
82871;SDS011;72646;43.596;1.428;2023-11-21T14:00:21;2.45;;;0.80;;
82871;SDS011;72646;43.596;1.428;2023-11-21T14:03:08;4.10;;;1.00;;
82871;SDS011;72646;43.596;1.428;2023-11-21T14:05:42;4.75;;;1.20;;
82871;SDS011;72646;43.596;1.428;2023-11-21T14:08:09;6.13;;;1.30;;
82871;SDS011;72646;43.596;1.428;2023-11-21T14:10:38;8.77;;;1.20;;
82871;SDS011;72646;43.596;1.428;2023-11-21T14:13:14;7.55;;;1.50;;
82871;SDS011;72646;43.596;1.428;2023-11-21T14:15:41;12.40;;;1.75;;
82871;SDS011;72646;43.596;1.428;2023-11-21T14:18:10;12.00;;;2.10;;
82871;SDS011;72646;43.596;1.428;2023-11-21T14:20:39;15.63;;;1.73;;
82871;SDS011;72646;43.596;1.428;2023-11-21T14:23:05;11.82;;;1.50;;
82871;SDS011;72646;43.596;1.428;2023-11-21T14:25:35;20.60;;;1.65;;
82871;SDS011;72646;43.596;1.428;2023-11-21T14:28:07;9.60;;;1.45;;
82871;SDS011;72646;43.596;1.428;2023-11-21T14:30:32;14.57;;;1.85;;
82871;SDS011;72646;43.596;1.428;2023-11-21T14:33:01;24.63;;;2.22;;
82871;SDS011;72646;43.596;1.428;2023-11-21T14:35:27;20.98;;;2.00;;
82871;SDS011;72646;43.596;1.428;2023-11-21T14:37:55;15.85;;;1.67;;
82871;SDS011;72646;43.596;1.428;2023-11-21T14:40:20;13.55;;;2.25;;
82871;SDS011;72646;43.596;1.428;2023-11-21T14:42:49;19.55;;;2.22;;
82871;SDS011;72646;43.596;1.428;2023-11-21T14:45:22;20.77;;;2.97;;
82871;SDS011;72646;43.596;1.428;2023-11-21T14:47:51;26.30;;;2.50;;
82871;SDS011;72646;43.596;1.428;2023-11-21T14:50:33;19.17;;;2.15;;
82871;SDS011;72646;43.596;1.428;2023-11-21T14:53:18;23.80;;;2.58;;
82871;SDS011;72646;43.596;1.428;2023-11-21T14:56:04;26.50;;;2.33;;
82871;SDS011;72646;43.596;1.428;2023-11-21T14:58:29;22.77;;;2.00;;
82871;SDS011;72646;43.596;1.428;2023-11-21T15:00:55;20.88;;;2.00;;
82871;SDS011;72646;43.596;1.428;2023-11-21T15:03:26;17.60;;;2.65;;
82871;SDS011;72646;43.596;1.428;2023-11-21T15:08:53;22.77;;;2.58;;
82871;SDS011;72646;43.596;1.428;2023-11-21T15:11:43;16.83;;;2.47;;
82871;SDS011;72646;43.596;1.428;2023-11-21T15:14:08;20.33;;;1.98;;
82871;SDS011;72646;43.596;1.428;2023-11-21T15:16:37;16.27;;;2.08;;
82871;SDS011;72646;43.596;1.428;2023-11-21T15:19:06;14.30;;;2.10;;
82871;SDS011;72646;43.596;1.428;2023-11-21T15:21:31;14.15;;;1.90;;
82871;SDS011;72646;43.596;1.428;2023-11-21T15:23:58;15.18;;;2.47;;
82871;SDS011;72646;43.596;1.428;2023-11-21T15:26:23;15.98;;;1.90;;
82871;SDS011;72646;43.596;1.428;2023-11-21T15:28:48;15.43;;;1.90;;
82871;SDS011;72646;43.596;1.428;2023-11-21T15:31:14;10.55;;;1.55;;
82871;SDS011;72646;43.596;1.428;2023-11-21T15:33:42;14.27;;;2.35;;
82871;SDS011;72646;43.596;1.428;2023-11-21T15:38:35;10.85;;;1.60;;
82871;SDS011;72646;43.596;1.428;2023-11-21T15:41:02;11.52;;;2.00;;